Aeroporto :
LOGIN :

Iscrizione | Disclaimer

   EN    FR    IT 

 










Sommario :    VFR   VFR Marginale   IFR   IFR Intensivo   IFR Molto Intensivo
Visibilità : 
Base nubi : 
>= 8 km
>= 3000ft
5 / 8 km
1000 / 3000 ft
1500m / 5 km
500 / 1000 ft
800 / 1500m
200 / 500 ft
< 800m
< 200 ft
Simboli :   Temporali  Nebbia  Neve Forte  Precipitazioni Forti  Vento > 20 kt
SIGMETs :   Varie  Temporali  Ghiacco  Turbolenza  Onda orograficha  Ceneri Vulcaniche






- Altitudine del aeroporto : 2001 ft
- Codice IATA : MAD


LEMD - Madrid

ULTIMO METAR :
  • 180230Z 34005KT CAVOK 06/03 Q1030 NOSIG

METARs OBSOLETI :
  • 180200Z 34004KT 310V010 CAVOK 05/02 Q1031 NOSIG
  • 180130Z VRB02KT CAVOK 05/03 Q1031 NOSIG
  • 180100Z 33005KT CAVOK 06/03 Q1031 NOSIG
  • 180030Z 34002KT CAVOK 06/03 Q1031 NOSIG
  • 180000Z VRB01KT CAVOK 06/05 Q1031 NOSIG

TAF TAF LEMD
Valido dal 18 a 00 ore il 19 a 06 ore UTC


172300Z 1800/1906 02008KT 9999 FEW045 TX14/1815Z TN01/1906Z



MetMap, La meteo Aeronautica in un colpo d'occhio ! - Copyright ORBIFLY Dicembre 2007 - Disclaimer

ORBIFLY MET'MAP TEAM :

Programmazione e sviluppo : Alexandra Zaïnal
Concezione : Baudouin d'Aumeries
Aiuto per la programmazione : Marc-Olivier Méhu
Supporto tecnico e logistico : Manuel Goepfert
Aiuto per la traduzione : Arnaldo La Scala

Contatto : metmap@orbifly.com




FONTI E CREDITI :

   NOAA